Time;durP1;ratioP1;P1;durP2;ratioP2;P2;SDS_P1;SDS_P2;PMS_P1;PMS_P2;Temp;Humidity;BMP_temperature;BMP_pressure;BME280_temperature;BME280_humidity;BME280_pressure;Samples;Min_cycle;Max_cycle;Signal;HPM_P1;HPM_P2
2022/08/28 00:00:50;;;;;;;;;;;;;;;23.48;80.27;96754.30;531156;265;65312;-70
2022/08/28 00:03:18;;;;;;;;;;;;;;;23.48;80.27;96754.30;531154;265;66326;-70
2022/08/28 00:05:46;;;;;;;;;;;;;;;23.47;80.31;96747.35;531189;266;68685;-70
2022/08/28 00:08:15;;;;;;;;;;;;;;;23.48;80.29;96749.72;531240;266;65174;-70
2022/08/28 00:10:43;;;;;;;;;;;;;;;23.49;80.30;96750.55;531240;266;69363;-70
2022/08/28 00:13:17;;;;;;;;;;;;;;;23.47;80.29;96752.72;531271;264;68518;-70
2022/08/28 00:15:41;;;;;;;;;;;;;;;23.47;80.28;96750.03;531058;267;62497;-70
2022/08/28 00:18:09;;;;;;;;;;;;;;;23.47;80.32;96747.35;531261;264;68637;-70
2022/08/28 00:20:37;;;;;;;;;;;;;;;23.46;80.37;96746.56;531170;267;66259;-70
2022/08/28 00:23:06;;;;;;;;;;;;;;;23.48;80.37;96751.61;531205;266;62889;-70
2022/08/28 00:25:34;;;;;;;;;;;;;;;23.47;80.41;96753.50;531168;267;68940;-70
2022/08/28 00:28:03;;;;;;;;;;;;;;;23.46;80.40;96751.92;531136;267;66453;-70
2022/08/28 00:30:32;;;;;;;;;;;;;;;23.47;80.39;96744.67;531152;265;64720;-70
2022/08/28 00:33:01;;;;;;;;;;;;;;;23.48;80.44;96743.57;531176;267;68843;-70
2022/08/28 00:35:29;;;;;;;;;;;;;;;23.47;80.49;96747.35;531141;267;69586;-70
2022/08/28 00:37:56;;;;;;;;;;;;;;;23.47;80.50;96752.72;531128;267;65149;-70
2022/08/28 00:40:26;;;;;;;;;;;;;;;23.47;80.51;96755.40;531137;267;69635;-70
2022/08/28 00:42:54;;;;;;;;;;;;;;;23.47;80.53;96758.08;531146;266;69498;-70
2022/08/28 00:45:23;;;;;;;;;;;;;;;23.48;80.53;96759.66;531244;266;64964;-70
2022/08/28 00:47:50;;;;;;;;;;;;;;;23.48;80.55;96754.30;531120;267;68770;-70
2022/08/28 00:50:19;;;;;;;;;;;;;;;23.47;80.59;96756.19;531178;267;68450;-70
2022/08/28 00:52:49;;;;;;;;;;;;;;;23.48;80.63;96756.98;531162;266;62748;-70
2022/08/28 00:55:21;;;;;;;;;;;;;;;23.46;80.64;96751.11;531190;266;68920;-70
2022/08/28 00:57:53;;;;;;;;;;;;;;;23.46;80.67;96757.29;531133;266;68945;-70
2022/08/28 01:00:22;;;;;;;;;;;;;;;23.46;80.71;96756.47;531226;265;65568;-70
2022/08/28 01:02:50;;;;;;;;;;;;;;;23.46;80.76;96759.97;531153;267;66570;-70
2022/08/28 01:05:18;;;;;;;;;;;;;;;23.46;80.79;96756.47;531168;266;68560;-70
2022/08/28 01:07:46;;;;;;;;;;;;;;;23.46;80.81;96761.83;531118;267;64091;-69
2022/08/28 01:10:17;;;;;;;;;;;;;;;23.45;80.80;96750.31;531113;267;67695;-70
2022/08/28 01:12:45;;;;;;;;;;;;;;;23.45;80.78;96761.04;531159;267;68932;-70
2022/08/28 01:15:15;;;;;;;;;;;;;;;23.46;80.78;96757.29;531262;266;65109;-70
2022/08/28 01:17:44;;;;;;;;;;;;;;;23.45;80.77;96750.31;531149;266;66384;-70
2022/08/28 01:20:13;;;;;;;;;;;;;;;23.46;80.74;96756.47;531109;267;68380;-70
2022/08/28 01:22:42;;;;;;;;;;;;;;;23.46;80.71;96756.47;531101;265;62912;-70
2022/08/28 01:25:13;;;;;;;;;;;;;;;23.46;80.65;96756.47;531106;266;66783;-69
2022/08/28 01:27:41;;;;;;;;;;;;;;;23.45;80.61;96752.20;531118;267;69506;-69
2022/08/28 01:30:10;;;;;;;;;;;;;;;23.45;80.63;96761.04;531147;267;65104;-69
2022/08/28 01:32:39;;;;;;;;;;;;;;;23.46;80.61;96767.20;531122;265;69019;-69
2022/08/28 01:35:08;;;;;;;;;;;;;;;23.45;80.61;96761.04;531225;264;69868;-69
2022/08/28 01:37:36;;;;;;;;;;;;;;;23.46;80.64;96756.47;531181;265;64974;-69
2022/08/28 01:40:05;;;;;;;;;;;;;;;23.46;80.70;96756.47;531225;265;68699;-69
2022/08/28 01:42:33;;;;;;;;;;;;;;;23.45;80.70;96758.36;531215;266;69080;-69
2022/08/28 01:45:01;;;;;;;;;;;;;;;23.46;80.71;96753.79;531085;264;66025;-69
2022/08/28 01:47:28;;;;;;;;;;;;;;;23.45;80.71;96758.36;531160;266;68726;-69
2022/08/28 01:49:56;;;;;;;;;;;;;;;23.46;80.70;96759.15;531137;267;68748;-69
2022/08/28 01:52:24;;;;;;;;;;;;;;;23.46;80.73;96756.47;531176;264;64829;-69
2022/08/28 01:54:52;;;;;;;;;;;;;;;23.46;80.75;96751.11;531183;267;68770;-69
2022/08/28 01:57:19;;;;;;;;;;;;;;;23.45;80.75;96755.68;531078;266;66496;-69
2022/08/28 01:59:47;;;;;;;;;;;;;;;23.45;80.75;96746.84;531135;267;65126;-69
2022/08/28 02:02:15;;;;;;;;;;;;;;;23.46;80.77;96751.11;531110;265;69816;-69
2022/08/28 02:04:42;;;;;;;;;;;;;;;23.46;80.77;96751.11;531164;266;68362;-69
2022/08/28 02:07:10;;;;;;;;;;;;;;;23.45;80.80;96752.20;531185;265;65522;-69
2022/08/28 02:09:37;;;;;;;;;;;;;;;23.45;80.81;96754.89;531134;267;69027;-69
2022/08/28 02:12:05;;;;;;;;;;;;;;;23.45;80.81;96752.20;531136;266;69100;-69
2022/08/28 02:14:33;;;;;;;;;;;;;;;23.45;80.86;96754.89;531231;266;63019;-69
2022/08/28 02:17:01;;;;;;;;;;;;;;;23.45;80.90;96749.52;531105;265;66553;-69
2022/08/28 02:19:29;;;;;;;;;;;;;;;23.45;80.92;96746.84;531176;267;68628;-69
2022/08/28 02:21:56;;;;;;;;;;;;;;;23.45;80.97;96755.68;531301;266;65135;-69
2022/08/28 02:24:24;;;;;;;;;;;;;;;23.45;80.99;96757.57;531174;266;68695;-69
2022/08/28 02:26:51;;;;;;;;;;;;;;;23.45;80.98;96755.68;531177;265;68645;-69
2022/08/28 02:29:19;;;;;;;;;;;;;;;23.45;81.00;96749.52;531145;265;65252;-69
2022/08/28 02:31:46;;;;;;;;;;;;;;;23.45;81.09;96754.89;531165;265;66147;-69
2022/08/28 02:34:14;;;;;;;;;;;;;;;23.44;81.13;96748.73;531196;266;66752;-69
2022/08/28 02:36:41;;;;;;;;;;;;;;;23.45;81.18;96758.36;531127;267;62905;-69
2022/08/28 02:39:09;;;;;;;;;;;;;;;23.45;81.24;96754.89;531215;264;66548;-69
2022/08/28 02:41:37;;;;;;;;;;;;;;;23.44;81.27;96753.30;531110;266;68925;-69
2022/08/28 02:44:05;;;;;;;;;;;;;;;23.45;81.28;96746.84;531282;266;65398;-69
2022/08/28 02:46:33;;;;;;;;;;;;;;;23.44;81.31;96759.46;531135;267;69091;-69
2022/08/28 02:49:00;;;;;;;;;;;;;;;23.44;81.27;96758.67;531240;265;68595;-69
2022/08/28 02:51:29;;;;;;;;;;;;;;;23.45;81.28;96754.89;531171;266;65159;-69
2022/08/28 02:53:57;;;;;;;;;;;;;;;23.44;81.28;96753.30;531147;267;68623;-69
2022/08/28 02:56:24;;;;;;;;;;;;;;;23.44;81.32;96758.67;531177;266;68395;-69
2022/08/28 02:58:52;;;;;;;;;;;;;;;23.44;81.28;96758.67;531220;262;65173;-69
2022/08/28 03:01:20;;;;;;;;;;;;;;;23.44;81.25;96764.82;531139;267;68431;-69
2022/08/28 03:03:47;;;;;;;;;;;;;;;23.44;81.27;96762.14;531239;266;68757;-69
2022/08/28 03:06:15;;;;;;;;;;;;;;;23.44;81.29;96761.35;531170;267;64780;-70
2022/08/28 03:08:43;;;;;;;;;;;;;;;23.43;81.29;96771.26;531167;266;68768;-69
2022/08/28 03:11:11;;;;;;;;;;;;;;;23.44;81.32;96769.40;531214;267;68526;-69
2022/08/28 03:13:39;;;;;;;;;;;;;;;23.44;81.34;96761.35;531174;267;62778;-69
2022/08/28 03:16:07;;;;;;;;;;;;;;;23.43;81.42;96765.89;531194;266;68499;-69
2022/08/28 03:18:34;;;;;;;;;;;;;;;23.44;81.43;96766.72;531239;265;66537;-69
2022/08/28 03:21:02;;;;;;;;;;;;;;;23.44;81.41;96766.72;531146;265;65064;-69
2022/08/28 03:23:30;;;;;;;;;;;;;;;23.43;81.50;96762.42;531214;266;68821;-69
2022/08/28 03:26:00;;;;;;;;;;;;;;;23.43;81.51;96767.78;531274;264;66660;-69
2022/08/28 03:28:29;;;;;;;;;;;;;;;23.43;81.50;96763.21;531162;267;64968;-69
2022/08/28 03:30:56;;;;;;;;;;;;;;;23.43;81.50;96763.21;531133;266;68778;-69
2022/08/28 03:33:25;;;;;;;;;;;;;;;23.43;81.52;96763.21;531322;264;68627;-69
2022/08/28 03:35:54;;;;;;;;;;;;;;;23.43;81.51;96765.11;531167;267;62868;-69
2022/08/28 03:38:22;;;;;;;;;;;;;;;23.43;81.51;96768.58;531137;265;68725;-69
2022/08/28 03:40:50;;;;;;;;;;;;;;;23.44;81.51;96769.40;531159;267;68770;-69
2022/08/28 03:43:19;;;;;;;;;;;;;;;23.43;81.53;96773.15;531190;267;62888;-69
2022/08/28 03:45:56;;;;;;;;;;;;;;;23.42;81.53;96772.36;531135;267;68492;-69
2022/08/28 03:48:24;;;;;;;;;;;;;;;23.42;81.54;96772.36;531129;265;68604;-69
2022/08/28 03:50:52;;;;;;;;;;;;;;;23.42;81.59;96772.36;531203;265;62955;-69
2022/08/28 03:53:22;;;;;;;;;;;;;;;23.43;81.60;96783.87;531143;267;69146;-69
2022/08/28 03:55:49;;;;;;;;;;;;;;;23.43;81.61;96783.87;531080;265;66534;-69
2022/08/28 03:58:17;;;;;;;;;;;;;;;23.43;81.62;96791.92;531109;266;65139;-69
2022/08/28 04:00:45;;;;;;;;;;;;;;;23.42;81.61;96784.98;531154;266;68974;-69
2022/08/28 04:03:12;;;;;;;;;;;;;;;23.42;81.65;96790.34;531197;267;68639;-69
2022/08/28 04:05:41;;;;;;;;;;;;;;;23.42;81.64;96788.45;531216;266;62866;-69
2022/08/28 04:08:11;;;;;;;;;;;;;;;23.42;81.70;96790.34;531001;267;69091;-69
2022/08/28 04:10:38;;;;;;;;;;;;;;;23.42;81.67;96784.98;531174;266;66542;-69
2022/08/28 04:13:06;;;;;;;;;;;;;;;23.42;81.69;96782.30;531163;266;63801;-69
2022/08/28 04:15:34;;;;;;;;;;;;;;;23.43;81.69;96791.92;531175;266;66517;-69
2022/08/28 04:18:01;;;;;;;;;;;;;;;23.41;81.70;96784.19;531159;266;68542;-69
2022/08/28 04:20:29;;;;;;;;;;;;;;;23.43;81.71;96789.23;531153;267;64967;-69
2022/08/28 04:22:56;;;;;;;;;;;;;;;23.42;81.72;96787.66;531157;266;68803;-69
2022/08/28 04:25:24;;;;;;;;;;;;;;;23.42;81.69;96787.66;531138;267;68679;-69
2022/08/28 04:27:51;;;;;;;;;;;;;;;23.42;81.67;96790.34;531200;266;65136;-69
2022/08/28 04:30:19;;;;;;;;;;;;;;;23.41;81.70;96786.08;531186;266;69095;-69
2022/08/28 04:32:47;;;;;;;;;;;;;;;23.42;81.70;96788.45;531173;266;66402;-69
2022/08/28 04:35:15;;;;;;;;;;;;;;;23.41;81.70;96786.87;531275;265;66220;-69
2022/08/28 04:37:43;;;;;;;;;;;;;;;23.41;81.70;96786.08;531207;266;68876;-69
2022/08/28 04:40:11;;;;;;;;;;;;;;;23.41;81.71;96786.87;531186;265;66826;-69
2022/08/28 04:42:39;;;;;;;;;;;;;;;23.41;81.72;96788.76;531132;267;65236;-69
2022/08/28 04:45:07;;;;;;;;;;;;;;;23.41;81.70;96786.08;531134;267;66409;-69
2022/08/28 04:47:37;;;;;;;;;;;;;;;23.42;81.69;96795.70;531137;267;68822;-69
2022/08/28 04:50:06;;;;;;;;;;;;;;;23.42;81.65;96795.70;531191;266;62897;-69
2022/08/28 04:52:33;;;;;;;;;;;;;;;23.41;81.70;96794.91;531131;265;68964;-70
2022/08/28 04:55:03;;;;;;;;;;;;;;;23.41;81.73;96794.91;531167;266;68833;-70
2022/08/28 04:57:30;;;;;;;;;;;;;;;23.41;81.70;96792.23;532282;265;64481;-70
2022/08/28 04:59:58;;;;;;;;;;;;;;;23.41;81.68;96799.48;534054;262;68468;-71
2022/08/28 05:02:25;;;;;;;;;;;;;;;23.41;81.71;96788.76;534129;265;68620;-70
2022/08/28 05:04:53;;;;;;;;;;;;;;;23.41;81.72;96792.23;533966;262;65118;-71
2022/08/28 05:07:20;;;;;;;;;;;;;;;23.42;81.74;96793.02;534147;265;66692;-71
2022/08/28 05:09:49;;;;;;;;;;;;;;;23.40;81.73;96795.98;534124;265;68957;-69
2022/08/28 05:12:18;;;;;;;;;;;;;;;23.41;81.75;96796.80;534044;263;71372;-70
2022/08/28 05:14:46;;;;;;;;;;;;;;;23.42;81.74;96793.02;534124;265;66538;-71
2022/08/28 05:17:14;;;;;;;;;;;;;;;23.41;81.78;96794.13;533930;265;68726;-70
2022/08/28 05:19:42;;;;;;;;;;;;;;;23.41;81.81;96789.55;534191;265;64943;-70
2022/08/28 05:22:10;;;;;;;;;;;;;;;23.41;81.84;96791.44;534318;265;69088;-71
2022/08/28 05:24:39;;;;;;;;;;;;;;;23.41;81.82;96797.59;534120;265;66713;-70
2022/08/28 05:27:08;;;;;;;;;;;;;;;23.40;81.82;96798.66;534109;265;65152;-70
2022/08/28 05:29:35;;;;;;;;;;;;;;;23.40;81.85;96801.34;533902;263;66754;-70
2022/08/28 05:32:03;;;;;;;;;;;;;;;23.41;81.81;96807.53;534144;265;68619;-70
2022/08/28 05:34:30;;;;;;;;;;;;;;;23.40;81.82;96797.88;534083;262;65258;-71
2022/08/28 05:36:58;;;;;;;;;;;;;;;23.41;81.82;96807.53;534128;265;66471;-70
2022/08/28 05:39:25;;;;;;;;;;;;;;;23.41;81.78;96807.53;534079;265;66574;-70
2022/08/28 05:41:53;;;;;;;;;;;;;;;23.40;81.76;96804.03;534157;265;65983;-70
2022/08/28 05:44:20;;;;;;;;;;;;;;;23.41;81.75;96804.84;534183;265;68568;-70
2022/08/28 05:46:48;;;;;;;;;;;;;;;23.41;81.78;96810.21;534135;263;68448;-70
2022/08/28 05:49:17;;;;;;;;;;;;;;;23.40;81.80;96808.59;534092;263;64040;-70
2022/08/28 05:51:44;;;;;;;;;;;;;;;23.40;81.80;96812.07;534117;265;68946;-70
2022/08/28 05:54:13;;;;;;;;;;;;;;;23.41;81.84;96807.53;534093;263;68953;-70
2022/08/28 05:56:42;;;;;;;;;;;;;;;23.39;81.85;96807.81;533875;262;65253;-69
2022/08/28 05:59:10;;;;;;;;;;;;;;;23.40;81.85;96813.96;531254;266;66769;-69
2022/08/28 06:01:42;;;;;;;;;;;;;;;23.39;81.86;96807.81;531086;266;69634;-70
2022/08/28 06:04:12;;;;;;;;;;;;;;;23.39;81.84;96810.48;531221;267;65019;-70
2022/08/28 06:06:40;;;;;;;;;;;;;;;23.40;81.86;96812.07;531141;267;66735;-70
2022/08/28 06:09:09;;;;;;;;;;;;;;;23.40;81.86;96800.55;531069;267;66627;-70
2022/08/28 06:11:42;;;;;;;;;;;;;;;23.39;81.88;96809.70;532946;264;66002;-67
2022/08/28 06:14:12;;;;;;;;;;;;;;;23.40;81.50;96805.92;535818;261;68462;-67
2022/08/28 06:16:41;;;;;;;;;;;;;;;23.38;79.59;96802.72;535900;261;68627;-67
2022/08/28 06:19:10;;;;;;;;;;;;;;;23.39;79.94;96801.66;535827;263;65055;-67
2022/08/28 06:21:40;;;;;;;;;;;;;;;23.40;80.99;96801.34;535936;262;69163;-67
2022/08/28 06:24:08;;;;;;;;;;;;;;;23.41;81.48;96807.53;535898;264;68626;-68
2022/08/28 06:26:36;;;;;;;;;;;;;;;23.41;81.80;96812.89;536327;261;64946;-67
2022/08/28 06:29:05;;;;;;;;;;;;;;;23.41;81.91;96807.53;536022;262;66554;-67
2022/08/28 06:31:33;;;;;;;;;;;;;;;23.41;82.09;96813.68;535952;262;66349;-67
2022/08/28 06:34:00;;;;;;;;;;;;;;;23.42;82.13;96809.11;535934;263;65448;-67
2022/08/28 06:36:29;;;;;;;;;;;;;;;23.42;82.13;96809.11;536008;262;68947;-67
2022/08/28 06:38:58;;;;;;;;;;;;;;;23.41;82.17;96805.64;536301;261;66414;-67
2022/08/28 06:41:26;;;;;;;;;;;;;;;23.42;82.19;96809.91;536040;262;63035;-69
2022/08/28 06:43:55;;;;;;;;;;;;;;;23.42;82.19;96809.91;535875;263;69467;-66
2022/08/28 06:46:23;;;;;;;;;;;;;;;23.43;82.19;96805.33;536064;263;68634;-66
2022/08/28 06:48:51;;;;;;;;;;;;;;;23.43;82.22;96811.48;535902;261;63369;-66
2022/08/28 06:51:19;;;;;;;;;;;;;;;23.43;82.19;96814.16;535965;261;68790;-66
2022/08/28 06:53:46;;;;;;;;;;;;;;;23.43;82.16;96811.48;535851;264;68801;-66
2022/08/28 06:56:17;;;;;;;;;;;;;;;23.44;82.18;96809.63;535983;263;62847;-66
2022/08/28 06:58:46;;;;;;;;;;;;;;;23.45;82.16;96813.89;535940;262;66748;-67
2022/08/28 07:01:21;;;;;;;;;;;;;;;23.44;82.17;96807.73;536168;261;68197;-66
2022/08/28 07:03:45;;;;;;;;;;;;;;;23.44;82.13;96806.94;535864;263;67666;-67
2022/08/28 07:06:13;;;;;;;;;;;;;;;23.44;82.16;96804.26;536185;261;68628;-68
2022/08/28 07:08:42;;;;;;;;;;;;;;;23.45;82.14;96812.00;536310;261;69305;-66
2022/08/28 07:11:12;;;;;;;;;;;;;;;23.45;82.14;96805.84;535660;264;64974;-67
2022/08/28 07:13:40;;;;;;;;;;;;;;;23.46;82.10;96802.88;531194;266;68876;-67
2022/08/28 07:16:08;;;;;;;;;;;;;;;23.45;82.11;96803.95;531203;266;68578;-67
2022/08/28 07:18:37;;;;;;;;;;;;;;;23.45;82.07;96803.95;531194;266;62786;-67
2022/08/28 07:21:04;;;;;;;;;;;;;;;23.46;82.06;96800.20;531358;265;69334;-67
2022/08/28 07:23:33;;;;;;;;;;;;;;;23.46;82.06;96802.88;531370;264;68308;-67
2022/08/28 07:26:02;;;;;;;;;;;;;;;23.46;82.05;96804.74;531170;267;65167;-68
2022/08/28 07:28:29;;;;;;;;;;;;;;;23.47;82.06;96800.98;531180;267;68349;-66
2022/08/28 07:31:04;;;;;;;;;;;;;;;23.47;82.04;96803.67;531204;266;68610;-66
2022/08/28 07:33:33;;;;;;;;;;;;;;;23.47;82.01;96809.03;531144;266;63694;-66
2022/08/28 07:36:02;;;;;;;;;;;;;;;23.47;82.02;96807.14;531171;267;69306;-66
2022/08/28 07:38:29;;;;;;;;;;;;;;;23.46;82.03;96805.56;531168;266;68556;-66
2022/08/28 07:40:57;;;;;;;;;;;;;;;23.48;82.00;96807.94;531160;267;65338;-66
2022/08/28 07:46:11;;;;;;;;;;;;;;;23.48;82.01;96807.94;531364;267;66813;-69
2022/08/28 07:48:39;;;;;;;;;;;;;;;23.48;82.00;96802.58;531151;267;66489;-69
2022/08/28 07:51:08;;;;;;;;;;;;;;;23.48;81.98;96797.20;531174;267;66590;-70
2022/08/28 07:53:36;;;;;;;;;;;;;;;23.48;82.01;96799.89;531163;265;69515;-70
2022/08/28 07:56:04;;;;;;;;;;;;;;;23.48;81.92;96802.58;531142;266;62925;-69
2022/08/28 07:58:32;;;;;;;;;;;;;;;23.49;81.97;96796.14;531122;265;67521;-69
2022/08/28 08:01:00;;;;;;;;;;;;;;;23.48;81.97;96787.27;531186;265;68709;-69
2022/08/28 08:03:28;;;;;;;;;;;;;;;23.50;81.95;96795.04;531154;267;66061;-69
2022/08/28 08:05:57;;;;;;;;;;;;;;;23.48;81.91;96792.64;531156;266;66541;-71
2022/08/28 08:08:25;;;;;;;;;;;;;;;23.48;81.95;96795.31;531149;267;68587;-71
2022/08/28 08:10:57;;;;;;;;;;;;;;;23.49;81.92;96796.14;531142;266;62803;-70
2022/08/28 08:13:24;;;;;;;;;;;;;;;23.49;81.89;96796.14;531162;265;66528;-70
2022/08/28 08:15:52;;;;;;;;;;;;;;;23.49;81.90;96798.82;531178;266;68447;-70
2022/08/28 08:18:19;;;;;;;;;;;;;;;23.50;81.87;96797.72;531161;266;64965;-70
2022/08/28 08:20:47;;;;;;;;;;;;;;;23.49;81.87;96788.09;531145;267;68953;-70
2022/08/28 08:23:15;;;;;;;;;;;;;;;23.50;81.87;96786.99;531112;266;67735;-70
2022/08/28 08:25:42;;;;;;;;;;;;;;;23.50;81.86;96781.62;531224;266;65286;-70
2022/08/28 08:28:10;;;;;;;;;;;;;;;23.49;81.81;96788.09;531178;266;66585;-70
2022/08/28 08:30:37;;;;;;;;;;;;;;;23.51;81.84;96777.05;531134;265;68689;-70
2022/08/28 08:33:05;;;;;;;;;;;;;;;23.50;81.84;96784.31;531160;267;64941;-70
2022/08/28 08:35:32;;;;;;;;;;;;;;;23.49;81.79;96783.52;531157;266;68935;-70
2022/08/28 08:38:00;;;;;;;;;;;;;;;23.51;81.83;96785.10;531162;265;68975;-70
2022/08/28 08:40:27;;;;;;;;;;;;;;;23.50;81.83;96789.67;531169;265;65994;-70
2022/08/28 08:42:56;;;;;;;;;;;;;;;23.50;81.78;96784.31;531145;267;66251;-70
2022/08/28 08:45:25;;;;;;;;;;;;;;;23.51;81.80;96785.10;531125;266;68776;-70
2022/08/28 08:47:54;;;;;;;;;;;;;;;23.51;81.79;96780.53;531118;267;63215;-70
2022/08/28 08:50:27;;;;;;;;;;;;;;;23.50;81.80;96789.67;531196;266;66962;-70
2022/08/28 08:53:08;;;;;;;;;;;;;;;23.50;81.81;96781.62;531168;267;68710;-70
2022/08/28 08:55:37;;;;;;;;;;;;;;;23.51;81.83;96783.21;531147;267;64977;-70
2022/08/28 08:58:06;;;;;;;;;;;;;;;23.51;81.84;96785.89;531127;266;66626;-69
2022/08/28 09:00:35;;;;;;;;;;;;;;;23.51;81.80;96779.73;531283;264;68595;-70
2022/08/28 09:03:04;;;;;;;;;;;;;;;23.51;81.77;96787.78;531070;266;65142;-69
2022/08/28 09:05:39;;;;;;;;;;;;;;;23.52;81.75;96789.37;531245;264;66162;-70
2022/08/28 09:08:08;;;;;;;;;;;;;;;23.51;81.78;96785.89;531173;267;66483;-69
2022/08/28 09:10:37;;;;;;;;;;;;;;;23.51;81.74;96791.26;531119;265;62900;-69
2022/08/28 09:13:15;;;;;;;;;;;;;;;23.52;81.77;96792.05;531058;265;68754;-69
2022/08/28 09:15:45;;;;;;;;;;;;;;;23.52;81.73;96786.69;531498;264;66395;-69
2022/08/28 09:18:14;;;;;;;;;;;;;;;23.51;81.74;96785.89;531123;265;62848;-69
2022/08/28 09:20:42;;;;;;;;;;;;;;;23.51;81.72;96777.05;531176;266;68948;-69
2022/08/28 09:23:09;;;;;;;;;;;;;;;23.51;81.73;96777.84;531314;266;68661;-69
2022/08/28 09:25:51;;;;;;;;;;;;;;;23.52;81.71;96775.95;531147;267;65061;-69
2022/08/28 09:28:21;;;;;;;;;;;;;;;23.52;81.69;96770.59;531149;265;69008;-69
2022/08/28 09:31:03;;;;;;;;;;;;;;;23.51;81.66;96772.48;529852;267;66391;-70
2022/08/28 09:33:32;;;;;;;;;;;;;;;23.52;81.68;96771.41;531116;267;64444;-69
2022/08/28 09:36:01;;;;;;;;;;;;;;;23.52;81.65;96775.95;531186;266;66644;-70
2022/08/28 09:43:53;;;;;;;;;;;;;;;23.52;81.67;96775.95;534187;265;67597;-66
2022/08/28 09:46:23;;;;;;;;;;;;;;;23.52;81.63;96778.64;534095;265;67600;-66
2022/08/28 09:48:54;;;;;;;;;;;;;;;23.50;81.64;96773.58;534108;262;62839;-66
2022/08/28 09:51:23;;;;;;;;;;;;;;;23.52;81.63;96775.95;533776;265;66496;-66
2022/08/28 09:53:55;;;;;;;;;;;;;;;23.52;81.61;96775.95;534015;264;68986;-66
2022/08/28 09:56:32;;;;;;;;;;;;;;;23.52;81.65;96776.78;534165;265;64281;-67
2022/08/28 09:59:01;;;;;;;;;;;;;;;23.51;81.62;96767.12;534041;265;68784;-67
2022/08/28 10:01:49;;;;;;;;;;;;;;;23.51;81.61;96769.80;534132;265;66487;-67
2022/08/28 10:04:24;;;;;;;;;;;;;;;23.52;81.55;96770.59;534129;265;62849;-67
2022/08/28 10:06:56;;;;;;;;;;;;;;;23.52;81.58;96773.27;533757;265;66712;-67
2022/08/28 10:09:34;;;;;;;;;;;;;;;23.52;81.56;96770.59;533951;265;68765;-67
2022/08/28 10:12:10;;;;;;;;;;;;;;;23.52;81.52;96775.95;534325;265;65323;-67
2022/08/28 10:14:39;;;;;;;;;;;;;;;23.51;81.58;96777.84;534058;265;68702;-67
2022/08/28 10:17:11;;;;;;;;;;;;;;;23.51;81.59;96772.48;533966;263;68657;-68
2022/08/28 10:19:52;;;;;;;;;;;;;;;23.52;81.57;96768.73;533828;263;62870;-68
2022/08/28 10:22:27;;;;;;;;;;;;;;;23.52;81.56;96767.91;534072;264;69755;-68
2022/08/28 10:24:56;;;;;;;;;;;;;;;23.51;81.51;96764.44;534024;265;66610;-66
2022/08/28 10:27:25;;;;;;;;;;;;;;;23.51;81.52;96764.44;533794;265;65442;-66
2022/08/28 10:29:54;;;;;;;;;;;;;;;23.52;81.56;96762.55;533825;265;66442;-67
2022/08/28 10:32:39;;;;;;;;;;;;;;;23.51;81.53;96756.39;533999;265;68634;-67
2022/08/28 10:35:14;;;;;;;;;;;;;;;23.52;81.47;96762.55;533845;260;62940;-68
2022/08/28 10:37:46;;;;;;;;;;;;;;;23.51;81.43;96753.70;534087;264;68752;-66
2022/08/28 10:40:21;;;;;;;;;;;;;;;23.52;81.43;96757.18;534164;265;68466;-67
2022/08/28 10:42:50;;;;;;;;;;;;;;;23.52;81.43;96754.50;533744;265;64931;-66
2022/08/28 10:45:21;;;;;;;;;;;;;;;23.51;81.40;96756.39;532812;265;68902;-66
2022/08/28 10:47:50;;;;;;;;;;;;;;;23.52;81.40;96757.18;534116;265;68776;-66
2022/08/28 10:50:19;;;;;;;;;;;;;;;23.52;81.32;96749.95;534153;265;65492;-66
2022/08/28 10:52:51;;;;;;;;;;;;;;;23.52;81.40;96754.50;534077;265;68716;-67
2022/08/28 10:55:20;;;;;;;;;;;;;;;23.51;81.34;96753.70;533170;265;68958;-67
2022/08/28 10:57:50;;;;;;;;;;;;;;;23.53;81.34;96756.90;534140;263;65244;-67
2022/08/28 11:00:19;;;;;;;;;;;;;;;23.53;81.29;96754.22;534145;265;69861;-66
2022/08/28 11:02:49;;;;;;;;;;;;;;;23.53;81.32;96756.11;534104;265;69550;-68
2022/08/28 11:05:18;;;;;;;;;;;;;;;23.53;81.30;96753.43;534094;265;64058;-66
2022/08/28 11:07:48;;;;;;;;;;;;;;;23.53;81.30;96751.53;533539;262;67690;-67
2022/08/28 11:10:35;;;;;;;;;;;;;;;23.53;81.39;96750.75;533916;265;68559;-67
2022/08/28 11:13:05;;;;;;;;;;;;;;;23.54;81.36;96749.64;534189;265;62963;-66
2022/08/28 11:15:35;;;;;;;;;;;;;;;23.53;81.28;96751.53;534117;265;68451;-66
2022/08/28 11:18:07;;;;;;;;;;;;;;;23.53;81.30;96740.02;534106;265;68505;-66
2022/08/28 11:20:35;;;;;;;;;;;;;;;23.53;81.29;96751.53;534120;265;62838;-67
2022/08/28 11:23:19;;;;;;;;;;;;;;;23.53;81.34;96754.22;534219;265;68913;-67
2022/08/28 11:25:48;;;;;;;;;;;;;;;23.53;81.36;96748.06;534084;265;66213;-66
2022/08/28 11:28:17;;;;;;;;;;;;;;;23.53;81.32;96753.43;534166;265;65288;-67
2022/08/28 11:30:46;;;;;;;;;;;;;;;23.53;81.28;96751.53;534175;265;66262;-67
2022/08/28 11:33:15;;;;;;;;;;;;;;;23.54;81.29;96752.33;534140;265;68583;-67
2022/08/28 11:35:45;;;;;;;;;;;;;;;23.53;81.22;96746.17;532743;265;65273;-67
2022/08/28 11:38:14;;;;;;;;;;;;;;;23.53;81.33;96748.85;534063;265;69594;-67
2022/08/28 11:40:49;;;;;;;;;;;;;;;23.52;81.30;96739.23;533461;265;68688;-67
2022/08/28 11:43:19;;;;;;;;;;;;;;;23.53;81.25;96738.13;534119;262;62749;-67
2022/08/28 11:45:49;;;;;;;;;;;;;;;23.54;81.27;96741.59;534136;265;68635;-67
2022/08/28 11:48:21;;;;;;;;;;;;;;;23.53;81.27;96740.02;533953;265;66428;-67
2022/08/28 11:51:05;;;;;;;;;;;;;;;23.54;81.19;96744.28;533294;265;62818;-67
2022/08/28 11:53:53;;;;;;;;;;;;;;;23.54;81.22;96736.23;533994;265;67154;-67
2022/08/28 11:56:28;;;;;;;;;;;;;;;23.54;81.29;96736.23;534091;265;68659;-67
2022/08/28 11:59:12;;;;;;;;;;;;;;;23.53;81.27;96740.80;534012;262;63057;-67
2022/08/28 12:01:40;;;;;;;;;;;;;;;23.54;81.23;96738.91;534258;264;66578;-67
2022/08/28 12:04:11;;;;;;;;;;;;;;;23.53;81.25;96731.97;534192;263;66251;-67
2022/08/28 12:06:54;;;;;;;;;;;;;;;23.53;81.27;96732.77;534224;265;62729;-67
2022/08/28 12:09:35;;;;;;;;;;;;;;;23.53;81.29;96731.97;533939;265;66437;-68
2022/08/28 12:12:04;;;;;;;;;;;;;;;23.53;81.27;96727.39;534197;265;67641;-67
2022/08/28 12:14:42;;;;;;;;;;;;;;;23.54;81.29;96733.55;534258;265;65321;-67
2022/08/28 12:17:17;;;;;;;;;;;;;;;23.53;81.24;96732.77;534216;265;68862;-67
2022/08/28 12:20:04;;;;;;;;;;;;;;;23.54;81.22;96733.55;534057;265;68670;-67
2022/08/28 12:22:51;;;;;;;;;;;;;;;23.54;81.24;96737.02;534179;265;65417;-67
2022/08/28 12:25:21;;;;;;;;;;;;;;;23.54;81.23;96728.19;534217;265;68779;-66
2022/08/28 12:27:49;;;;;;;;;;;;;;;23.53;81.29;96732.77;533972;265;69021;-66
2022/08/28 12:30:18;;;;;;;;;;;;;;;23.54;81.26;96731.66;534238;265;65175;-66
2022/08/28 12:32:50;;;;;;;;;;;;;;;23.54;81.17;96722.82;533946;265;68427;-66
2022/08/28 12:35:22;;;;;;;;;;;;;;;23.54;81.27;96730.87;533946;265;68693;-66
2022/08/28 12:37:52;;;;;;;;;;;;;;;23.54;81.22;96723.61;534118;263;63130;-67
2022/08/28 12:40:27;;;;;;;;;;;;;;;23.54;81.26;96731.66;533962;265;68712;-66
2022/08/28 12:42:57;;;;;;;;;;;;;;;23.55;81.28;96727.11;534149;265;68991;-66
2022/08/28 12:45:43;;;;;;;;;;;;;;;23.54;81.28;96726.30;534178;265;62880;-67
2022/08/28 12:48:18;;;;;;;;;;;;;;;23.54;81.26;96714.78;534182;265;69159;-67
2022/08/28 12:50:46;;;;;;;;;;;;;;;23.54;81.22;96725.50;534185;264;67524;-67
2022/08/28 12:53:17;;;;;;;;;;;;;;;23.54;81.19;96717.45;534135;262;65293;-67
2022/08/28 12:55:45;;;;;;;;;;;;;;;23.55;81.24;96721.75;534159;265;69002;-67
2022/08/28 12:58:14;;;;;;;;;;;;;;;23.55;81.25;96719.07;534025;265;67004;-67
2022/08/28 13:00:49;;;;;;;;;;;;;;;23.55;81.26;96725.22;534122;262;63765;-66
2022/08/28 13:03:17;;;;;;;;;;;;;;;23.55;81.22;96719.86;533960;265;68516;-66
2022/08/28 13:05:44;;;;;;;;;;;;;;;23.54;81.27;96723.61;534084;265;66401;-66
2022/08/28 13:08:12;;;;;;;;;;;;;;;23.55;81.22;96716.39;534154;265;64972;-66